Time;durP1;ratioP1;P1;durP2;ratioP2;P2;SDS_P1;SDS_P2;PMS_P1;PMS_P2;Temp;Humidity;BMP_temperature;BMP_pressure;BME280_temperature;BME280_humidity;BME280_pressure;Samples;Min_cycle;Max_cycle;Signal;HPM_P1;HPM_P2
2022/07/09 00:00:11;;;;;;;5.10;3.73;;;;;;;;;;5033318;28;20226;-66
2022/07/09 00:02:37;;;;;;;6.93;3.67;;;;;;;;;;5032712;28;20175;-66
2022/07/09 00:05:03;;;;;;;4.70;3.80;;;;;;;;;;5032042;28;20260;-65
2022/07/09 00:07:29;;;;;;;4.33;3.90;;;;;;;;;;5033852;28;20199;-66
2022/07/09 00:09:55;;;;;;;4.70;3.80;;;;;;;;;;5033436;28;20717;-66
2022/07/09 00:12:21;;;;;;;4.60;3.87;;;;;;;;;;5031954;28;20183;-66
2022/07/09 00:14:47;;;;;;;4.50;3.83;;;;;;;;;;5033452;28;20242;-66
2022/07/09 00:17:13;;;;;;;5.30;3.63;;;;;;;;;;5031956;28;20222;-66
2022/07/09 00:19:39;;;;;;;6.70;4.20;;;;;;;;;;5033518;28;20289;-66
2022/07/09 00:22:05;;;;;;;5.93;4.63;;;;;;;;;;5033475;28;20237;-66
2022/07/09 00:24:32;;;;;;;5.33;4.27;;;;;;;;;;5032430;28;20185;-66
2022/07/09 00:26:58;;;;;;;7.70;4.50;;;;;;;;;;5033174;28;20579;-66
2022/07/09 00:29:23;;;;;;;5.43;4.20;;;;;;;;;;5033055;28;20187;-66
2022/07/09 00:31:50;;;;;;;6.90;5.03;;;;;;;;;;5031755;28;20183;-65
2022/07/09 00:34:16;;;;;;;5.07;4.03;;;;;;;;;;5033125;28;20179;-65
2022/07/09 00:36:41;;;;;;;5.60;4.23;;;;;;;;;;5033043;28;20221;-66
2022/07/09 00:39:07;;;;;;;4.93;4.10;;;;;;;;;;5032912;28;20198;-66
2022/07/09 00:41:33;;;;;;;5.67;4.17;;;;;;;;;;5031938;28;20248;-66
2022/07/09 00:43:59;;;;;;;7.57;4.40;;;;;;;;;;5032851;28;20180;-66
2022/07/09 00:46:25;;;;;;;6.00;4.23;;;;;;;;;;5032714;28;20253;-66
2022/07/09 00:48:51;;;;;;;6.37;4.57;;;;;;;;;;5033172;28;20643;-66
2022/07/09 00:51:18;;;;;;;5.47;4.70;;;;;;;;;;5031545;28;20742;-66
2022/07/09 00:53:46;;;;;;;9.57;4.87;;;;;;;;;;5031549;28;20186;-66
2022/07/09 00:56:12;;;;;;;7.47;4.80;;;;;;;;;;5031457;28;20207;-66
2022/07/09 00:58:38;;;;;;;5.13;4.50;;;;;;;;;;5031422;28;20270;-66
2022/07/09 01:01:04;;;;;;;6.10;4.70;;;;;;;;;;5032769;28;20179;-66
2022/07/09 01:03:30;;;;;;;6.73;4.97;;;;;;;;;;5031447;28;20191;-66
2022/07/09 01:05:57;;;;;;;4.67;4.27;;;;;;;;;;5032592;28;20290;-66
2022/07/09 01:08:23;;;;;;;6.73;5.73;;;;;;;;;;5031416;28;20179;-66
2022/07/09 01:10:51;;;;;;;8.37;5.40;;;;;;;;;;5031432;28;20183;-66
2022/07/09 01:13:17;;;;;;;7.03;6.33;;;;;;;;;;5033212;28;20179;-66
2022/07/09 01:15:43;;;;;;;7.10;5.53;;;;;;;;;;5034990;28;20186;-67
2022/07/09 01:18:12;;;;;;;6.43;5.50;;;;;;;;;;5036483;28;20238;-66
2022/07/09 01:20:38;;;;;;;7.37;5.30;;;;;;;;;;5035191;28;20207;-67
2022/07/09 01:23:04;;;;;;;8.90;5.30;;;;;;;;;;5036320;28;20548;-66
2022/07/09 01:25:33;;;;;;;6.50;5.90;;;;;;;;;;5036078;28;20233;-65
2022/07/09 01:27:59;;;;;;;8.10;5.20;;;;;;;;;;5034966;28;20283;-66
2022/07/09 01:30:26;;;;;;;5.80;5.30;;;;;;;;;;5036099;28;20193;-66
2022/07/09 01:32:53;;;;;;;6.63;5.87;;;;;;;;;;5034751;28;20674;-66
2022/07/09 01:35:19;;;;;;;9.97;6.30;;;;;;;;;;5036254;28;20237;-66
2022/07/09 01:37:45;;;;;;;7.73;6.93;;;;;;;;;;5034367;28;20254;-66
2022/07/09 01:40:12;;;;;;;7.07;5.77;;;;;;;;;;5035731;28;20234;-66
2022/07/09 01:42:38;;;;;;;7.07;5.97;;;;;;;;;;5035799;28;20670;-66
2022/07/09 01:45:04;;;;;;;7.23;6.50;;;;;;;;;;5034574;28;20183;-66
2022/07/09 01:47:30;;;;;;;7.77;6.93;;;;;;;;;;5034286;28;20678;-66
2022/07/09 01:49:56;;;;;;;8.33;7.00;;;;;;;;;;5036170;28;20179;-66
2022/07/09 01:52:22;;;;;;;7.50;6.80;;;;;;;;;;5035586;28;20229;-66
2022/07/09 01:54:47;;;;;;;9.33;7.27;;;;;;;;;;5035610;28;20229;-66
2022/07/09 01:57:13;;;;;;;8.20;7.20;;;;;;;;;;5035762;28;20329;-65
2022/07/09 01:59:40;;;;;;;8.83;7.23;;;;;;;;;;5034217;28;20210;-65
2022/07/09 02:02:06;;;;;;;7.87;6.83;;;;;;;;;;5035718;28;20182;-66
2022/07/09 02:04:32;;;;;;;9.23;7.27;;;;;;;;;;5035787;28;20666;-66
2022/07/09 02:06:58;;;;;;;6.90;6.23;;;;;;;;;;5035567;28;20341;-66
2022/07/09 02:09:24;;;;;;;7.73;6.93;;;;;;;;;;5034181;28;20247;-66
2022/07/09 02:11:50;;;;;;;8.13;7.00;;;;;;;;;;5034106;28;20190;-66
2022/07/09 02:14:16;;;;;;;9.90;7.50;;;;;;;;;;5035409;28;20179;-66
2022/07/09 02:16:42;;;;;;;9.30;7.10;;;;;;;;;;5033990;28;20260;-66
2022/07/09 02:19:08;;;;;;;8.07;7.03;;;;;;;;;;5033916;28;20657;-66
2022/07/09 02:21:34;;;;;;;11.00;7.90;;;;;;;;;;5033914;28;20705;-66
2022/07/09 02:24:00;;;;;;;8.70;7.00;;;;;;;;;;5034940;28;20179;-66
2022/07/09 02:26:27;;;;;;;8.57;7.67;;;;;;;;;;5034907;28;20687;-66
2022/07/09 02:28:54;;;;;;;8.50;7.50;;;;;;;;;;5033776;28;20269;-66
2022/07/09 02:31:20;;;;;;;9.20;8.17;;;;;;;;;;5033701;28;20189;-63
2022/07/09 02:33:46;;;;;;;11.73;8.37;;;;;;;;;;5034889;28;20262;-66
2022/07/09 02:36:12;;;;;;;9.37;8.07;;;;;;;;;;5034692;28;20223;-66
2022/07/09 02:38:37;;;;;;;10.77;8.57;;;;;;;;;;5034953;28;20187;-66
2022/07/09 02:41:04;;;;;;;8.30;7.50;;;;;;;;;;5033585;28;20185;-65
2022/07/09 02:43:30;;;;;;;8.43;7.57;;;;;;;;;;5033498;28;20176;-66
2022/07/09 02:45:56;;;;;;;8.10;7.00;;;;;;;;;;5034920;28;20727;-65
2022/07/09 02:48:22;;;;;;;9.50;7.43;;;;;;;;;;5034736;28;20263;-66
2022/07/09 02:50:49;;;;;;;11.93;7.17;;;;;;;;;;5034593;28;20194;-66
2022/07/09 02:53:16;;;;;;;7.93;7.23;;;;;;;;;;5034784;28;20191;-66
2022/07/09 02:55:42;;;;;;;9.27;7.47;;;;;;;;;;5033181;28;20211;-66
2022/07/09 02:58:08;;;;;;;9.03;7.80;;;;;;;;;;5034820;28;20183;-66
2022/07/09 03:00:34;;;;;;;8.57;7.57;;;;;;;;;;5034613;28;20253;-66
2022/07/09 03:03:00;;;;;;;9.03;7.70;;;;;;;;;;5033092;28;20266;-66
2022/07/09 03:05:26;;;;;;;10.67;7.30;;;;;;;;;;5034318;28;20171;-66
2022/07/09 03:07:52;;;;;;;8.67;7.70;;;;;;;;;;5034148;28;20667;-66
2022/07/09 03:10:18;;;;;;;12.20;7.13;;;;;;;;;;5034173;28;20186;-66
2022/07/09 03:12:43;;;;;;;9.33;8.07;;;;;;;;;;5032831;28;20555;-66
2022/07/09 03:15:10;;;;;;;11.40;8.90;;;;;;;;;;5034130;28;20519;-66
2022/07/09 03:17:36;;;;;;;10.07;8.70;;;;;;;;;;5034031;28;20207;-66
2022/07/09 03:20:01;;;;;;;9.67;8.67;;;;;;;;;;5034077;28;20207;-65
2022/07/09 03:22:27;;;;;;;11.87;8.47;;;;;;;;;;5033990;28;20183;-66
2022/07/09 03:24:53;;;;;;;12.50;8.57;;;;;;;;;;5032710;28;20182;-66
2022/07/09 03:27:19;;;;;;;9.47;8.53;;;;;;;;;;5032536;28;20546;-66
2022/07/09 03:29:45;;;;;;;10.57;7.93;;;;;;;;;;5032535;28;20198;-66
2022/07/09 03:32:11;;;;;;;11.07;8.37;;;;;;;;;;5032514;28;20183;-66
2022/07/09 03:34:38;;;;;;;10.40;8.70;;;;;;;;;;5034108;28;20182;-65
2022/07/09 03:37:04;;;;;;;9.50;8.60;;;;;;;;;;5032734;28;20268;-65
2022/07/09 03:39:30;;;;;;;10.13;8.67;;;;;;;;;;5033887;28;20203;-66
2022/07/09 03:41:56;;;;;;;12.47;9.83;;;;;;;;;;5034136;28;20669;-66
2022/07/09 03:44:22;;;;;;;13.83;8.83;;;;;;;;;;5032704;28;20728;-65
2022/07/09 03:46:48;;;;;;;11.17;9.00;;;;;;;;;;5033850;28;20195;-65
2022/07/09 03:49:13;;;;;;;10.70;9.47;;;;;;;;;;5032529;28;20201;-66
2022/07/09 03:51:39;;;;;;;11.93;9.70;;;;;;;;;;5032298;28;20186;-66
2022/07/09 03:54:05;;;;;;;9.83;8.93;;;;;;;;;;5033720;28;20261;-67
2022/07/09 03:56:31;;;;;;;12.37;9.50;;;;;;;;;;5033385;28;20218;-67
2022/07/09 03:58:57;;;;;;;11.67;9.30;;;;;;;;;;5033382;28;20290;-66
2022/07/09 04:01:23;;;;;;;12.27;9.07;;;;;;;;;;5033449;28;20179;-66
2022/07/09 04:03:49;;;;;;;10.97;9.83;;;;;;;;;;5032061;28;20233;-66
2022/07/09 04:06:15;;;;;;;13.80;10.00;;;;;;;;;;5033266;28;20207;-63
2022/07/09 04:08:41;;;;;;;11.80;10.60;;;;;;;;;;5033347;28;20167;-66
2022/07/09 04:11:07;;;;;;;14.07;11.27;;;;;;;;;;5031953;28;20183;-66
2022/07/09 04:13:33;;;;;;;15.10;11.77;;;;;;;;;;5033161;28;20183;-67
2022/07/09 04:15:59;;;;;;;14.67;12.30;;;;;;;;;;5033517;28;20191;-66
2022/07/09 04:18:25;;;;;;;13.70;12.07;;;;;;;;;;5034114;28;20183;-66
2022/07/09 04:20:52;;;;;;;15.70;13.00;;;;;;;;;;5035418;28;20213;-66
2022/07/09 04:23:18;;;;;;;20.23;13.30;;;;;;;;;;5031950;28;20278;-66
2022/07/09 04:25:45;;;;;;;15.30;13.70;;;;;;;;;;5033348;28;20215;-66
2022/07/09 04:28:11;;;;;;;19.50;13.80;;;;;;;;;;5033239;28;20206;-66
2022/07/09 04:30:37;;;;;;;17.97;14.70;;;;;;;;;;5039937;28;20179;-72
2022/07/09 04:33:03;;;;;;;16.90;13.40;;;;;;;;;;5035566;28;20217;-66
2022/07/09 04:35:29;;;;;;;15.97;13.67;;;;;;;;;;5031651;28;20266;-66
2022/07/09 04:37:55;;;;;;;15.13;12.63;;;;;;;;;;5032997;28;20205;-66
2022/07/09 04:40:21;;;;;;;19.57;14.23;;;;;;;;;;5033096;28;20210;-67
2022/07/09 04:42:47;;;;;;;22.03;14.07;;;;;;;;;;5032942;28;20175;-66
2022/07/09 04:45:13;;;;;;;18.77;14.37;;;;;;;;;;5033166;28;20210;-67
2022/07/09 04:47:38;;;;;;;18.63;15.50;;;;;;;;;;5032425;28;20195;-66
2022/07/09 04:50:05;;;;;;;18.33;16.43;;;;;;;;;;5035458;28;20191;-66
2022/07/09 04:52:31;;;;;;;21.00;16.50;;;;;;;;;;5035461;28;20187;-66
2022/07/09 04:54:57;;;;;;;19.83;16.07;;;;;;;;;;5036779;28;20185;-66
2022/07/09 04:57:22;;;;;;;21.87;16.43;;;;;;;;;;5036555;28;20235;-66
2022/07/09 04:59:48;;;;;;;19.17;17.07;;;;;;;;;;5036548;28;20674;-66
2022/07/09 05:02:14;;;;;;;19.93;16.77;;;;;;;;;;5035310;28;20584;-66
2022/07/09 05:04:40;;;;;;;18.67;15.30;;;;;;;;;;5036714;28;20175;-66
2022/07/09 05:07:06;;;;;;;18.83;14.43;;;;;;;;;;5035280;28;20260;-66
2022/07/09 05:09:33;;;;;;;15.17;13.23;;;;;;;;;;5036485;28;20179;-66
2022/07/09 05:11:59;;;;;;;15.07;13.20;;;;;;;;;;5035136;28;20213;-66
2022/07/09 05:14:25;;;;;;;18.93;12.80;;;;;;;;;;5035058;28;20183;-66
2022/07/09 05:16:51;;;;;;;14.90;12.30;;;;;;;;;;5035051;28;20199;-67
2022/07/09 05:19:17;;;;;;;14.13;12.67;;;;;;;;;;5036517;28;20210;-66
2022/07/09 05:21:43;;;;;;;20.17;13.67;;;;;;;;;;5036409;28;20178;-66
2022/07/09 05:24:09;;;;;;;18.53;14.87;;;;;;;;;;5036197;28;20175;-66
2022/07/09 05:26:35;;;;;;;18.17;14.20;;;;;;;;;;5036211;28;20701;-66
2022/07/09 05:29:02;;;;;;;18.67;14.43;;;;;;;;;;5036427;28;20175;-67
2022/07/09 05:31:28;;;;;;;17.30;14.13;;;;;;;;;;5034967;28;20187;-64
2022/07/09 05:33:54;;;;;;;16.87;14.43;;;;;;;;;;5034934;28;20266;-66
2022/07/09 05:36:19;;;;;;;16.93;14.27;;;;;;;;;;5034451;28;20257;-67
2022/07/09 05:38:47;;;;;;;19.57;15.60;;;;;;;;;;5034764;28;20587;-66
2022/07/09 05:41:14;;;;;;;21.37;14.37;;;;;;;;;;5034634;28;20647;-66
2022/07/09 05:43:40;;;;;;;19.80;14.90;;;;;;;;;;5036006;28;20175;-66
2022/07/09 05:46:06;;;;;;;22.67;15.33;;;;;;;;;;5035881;28;20259;-64
2022/07/09 05:48:32;;;;;;;21.13;15.80;;;;;;;;;;5034558;28;20250;-66
2022/07/09 05:50:58;;;;;;;22.07;16.20;;;;;;;;;;5035987;28;20276;-64
2022/07/09 05:53:24;;;;;;;20.93;15.10;;;;;;;;;;5034558;28;20186;-66
2022/07/09 05:55:50;;;;;;;20.60;15.73;;;;;;;;;;5035726;28;20179;-66
2022/07/09 05:58:16;;;;;;;18.67;15.00;;;;;;;;;;5036039;28;20179;-67
2022/07/09 06:00:42;;;;;;;19.93;14.60;;;;;;;;;;5034704;28;20231;-67
2022/07/09 06:03:08;;;;;;;18.07;13.87;;;;;;;;;;5035711;28;20198;-66
2022/07/09 06:05:34;;;;;;;24.50;13.73;;;;;;;;;;5035799;28;20177;-66
2022/07/09 06:08:00;;;;;;;18.73;14.37;;;;;;;;;;5035611;28;20258;-66
2022/07/09 06:10:26;;;;;;;23.67;14.83;;;;;;;;;;5036028;28;20183;-62
2022/07/09 06:12:52;;;;;;;21.10;14.40;;;;;;;;;;5034325;28;20187;-67
2022/07/09 06:15:18;;;;;;;18.80;14.33;;;;;;;;;;5035571;28;20189;-66
2022/07/09 06:17:44;;;;;;;22.83;15.13;;;;;;;;;;5035214;28;20286;-66
2022/07/09 06:20:10;;;;;;;20.13;14.03;;;;;;;;;;5035567;28;20253;-66
2022/07/09 06:22:36;;;;;;;21.97;14.13;;;;;;;;;;5034140;28;20183;-66
2022/07/09 06:25:02;;;;;;;18.53;13.43;;;;;;;;;;5035221;28;20526;-66
2022/07/09 06:27:28;;;;;;;21.73;14.07;;;;;;;;;;5035049;28;20253;-66
2022/07/09 06:29:54;;;;;;;23.20;15.13;;;;;;;;;;5035405;28;20182;-66
2022/07/09 06:32:20;;;;;;;21.93;14.73;;;;;;;;;;5034044;28;20274;-66
2022/07/09 06:34:46;;;;;;;20.90;15.53;;;;;;;;;;5033687;28;20186;-66
2022/07/09 06:37:12;;;;;;;20.27;14.10;;;;;;;;;;5033584;28;20696;-66
2022/07/09 06:39:50;;;;;;;17.87;12.97;;;;;;;;;;5033952;28;20294;-66
2022/07/09 06:42:17;;;;;;;19.63;13.80;;;;;;;;;;5033997;28;20628;-67
2022/07/09 06:44:43;;;;;;;23.30;12.77;;;;;;;;;;5035255;28;20179;-66
2022/07/09 06:47:10;;;;;;;18.07;12.37;;;;;;;;;;5034957;28;20238;-66
2022/07/09 06:49:36;;;;;;;20.40;12.80;;;;;;;;;;5034932;28;20186;-66
2022/07/09 06:52:02;;;;;;;20.70;12.93;;;;;;;;;;5035020;28;20175;-66
2022/07/09 06:54:28;;;;;;;18.50;13.03;;;;;;;;;;5034754;28;20179;-66
2022/07/09 06:56:54;;;;;;;19.20;12.13;;;;;;;;;;5033513;28;20199;-67
2022/07/09 06:59:22;;;;;;;16.80;11.93;;;;;;;;;;5035284;28;20233;-66
2022/07/09 07:01:47;;;;;;;14.80;10.70;;;;;;;;;;5033285;28;20187;-65
2022/07/09 07:04:14;;;;;;;15.80;11.33;;;;;;;;;;5034835;28;20648;-66
2022/07/09 07:06:41;;;;;;;17.83;10.50;;;;;;;;;;5033308;28;20199;-64
2022/07/09 07:09:07;;;;;;;14.60;10.70;;;;;;;;;;5033016;28;20277;-66
2022/07/09 07:11:33;;;;;;;15.43;9.87;;;;;;;;;;5034491;28;20206;-67
2022/07/09 07:13:59;;;;;;;12.27;9.67;;;;;;;;;;5034146;28;20183;-66
2022/07/09 07:16:25;;;;;;;14.57;10.97;;;;;;;;;;5033003;28;20203;-66
2022/07/09 07:18:51;;;;;;;14.20;11.13;;;;;;;;;;5034122;28;20646;-66
2022/07/09 07:21:17;;;;;;;13.17;10.40;;;;;;;;;;5033901;28;20178;-66
2022/07/09 07:23:43;;;;;;;15.40;8.60;;;;;;;;;;5033916;28;20642;-66
2022/07/09 07:26:09;;;;;;;9.37;8.33;;;;;;;;;;5034276;28;20682;-67
2022/07/09 07:28:35;;;;;;;9.97;7.30;;;;;;;;;;5034087;28;20180;-66
2022/07/09 07:31:01;;;;;;;7.00;5.50;;;;;;;;;;5032651;28;20190;-66
2022/07/09 07:33:27;;;;;;;8.67;5.97;;;;;;;;;;5033661;28;20668;-66
2022/07/09 07:35:53;;;;;;;7.60;5.40;;;;;;;;;;5034146;28;20243;-66
2022/07/09 07:38:19;;;;;;;4.53;3.53;;;;;;;;;;5033744;28;20167;-65
2022/07/09 07:40:45;;;;;;;4.30;3.70;;;;;;;;;;5033335;28;20202;-66
2022/07/09 07:43:11;;;;;;;5.37;4.43;;;;;;;;;;5031555;28;20187;-66
2022/07/09 07:45:37;;;;;;;4.47;3.43;;;;;;;;;;5032832;28;20177;-66
2022/07/09 07:48:03;;;;;;;4.23;3.83;;;;;;;;;;5031640;28;20189;-66
2022/07/09 07:50:29;;;;;;;5.00;3.50;;;;;;;;;;5032953;28;20250;-66
2022/07/09 07:52:55;;;;;;;4.20;2.90;;;;;;;;;;5032987;28;20270;-66
2022/07/09 07:55:22;;;;;;;4.40;3.27;;;;;;;;;;5032823;28;20183;-66
2022/07/09 07:57:48;;;;;;;3.13;2.80;;;;;;;;;;5032739;28;20248;-66
2022/07/09 08:00:14;;;;;;;4.53;3.07;;;;;;;;;;5032561;28;20207;-66
2022/07/09 08:02:40;;;;;;;3.97;2.47;;;;;;;;;;5032655;28;20549;-66
2022/07/09 08:05:06;;;;;;;4.97;2.40;;;;;;;;;;5031112;28;20189;-66
2022/07/09 08:07:32;;;;;;;2.70;2.10;;;;;;;;;;5032418;28;20218;-66
2022/07/09 08:09:58;;;;;;;4.60;2.47;;;;;;;;;;5031176;28;20227;-67
2022/07/09 08:12:24;;;;;;;2.97;2.43;;;;;;;;;;5032673;28;20266;-66
2022/07/09 08:14:50;;;;;;;2.40;2.20;;;;;;;;;;5032318;28;20254;-66
2022/07/09 08:17:16;;;;;;;2.33;2.17;;;;;;;;;;5033023;28;20206;-66
2022/07/09 08:19:42;;;;;;;2.93;2.30;;;;;;;;;;5031816;28;20238;-66
2022/07/09 08:22:08;;;;;;;2.63;2.10;;;;;;;;;;5032546;28;20238;-66
2022/07/09 08:24:34;;;;;;;3.23;2.67;;;;;;;;;;5032138;28;20183;-66
2022/07/09 08:27:00;;;;;;;2.77;2.37;;;;;;;;;;5033248;28;20206;-66
2022/07/09 08:29:26;;;;;;;3.03;2.43;;;;;;;;;;5032998;28;20191;-66
2022/07/09 08:31:52;;;;;;;2.67;2.47;;;;;;;;;;5032987;28;20186;-66
2022/07/09 08:34:18;;;;;;;5.30;2.93;;;;;;;;;;5033282;28;20182;-66
2022/07/09 08:36:44;;;;;;;3.57;2.10;;;;;;;;;;5032612;28;20603;-64
2022/07/09 08:39:11;;;;;;;2.10;1.80;;;;;;;;;;5032795;28;20203;-66
2022/07/09 08:41:37;;;;;;;2.00;1.80;;;;;;;;;;5032817;28;20175;-63
2022/07/09 08:44:04;;;;;;;1.70;1.60;;;;;;;;;;5057485;22;20233;-66
2022/07/09 08:46:32;;;;;;;2.40;2.20;;;;;;;;;;5033166;28;20182;-68
2022/07/09 08:48:58;;;;;;;2.07;1.87;;;;;;;;;;5034209;28;20183;-68
2022/07/09 08:51:24;;;;;;;2.40;2.10;;;;;;;;;;5032489;28;20180;-67
2022/07/09 08:53:50;;;;;;;2.27;1.60;;;;;;;;;;5033503;28;20226;-68
2022/07/09 08:56:16;;;;;;;2.10;1.70;;;;;;;;;;5033167;28;20183;-67
2022/07/09 08:58:42;;;;;;;2.85;1.80;;;;;;;;;;5032834;28;20229;-67
2022/07/09 09:01:12;;;;;;;2.30;2.13;;;;;;;;;;5032894;28;20175;-67
2022/07/09 09:03:38;;;;;;;3.50;2.07;;;;;;;;;;5033111;28;20195;-68
2022/07/09 09:06:05;;;;;;;2.90;2.60;;;;;;;;;;5031861;28;20549;-68
2022/07/09 09:08:35;;;;;;;2.50;2.30;;;;;;;;;;5032859;28;20266;-67
2022/07/09 09:11:01;;;;;;;1.57;1.47;;;;;;;;;;5033187;28;20179;-65
2022/07/09 09:13:27;;;;;;;2.87;1.50;;;;;;;;;;5031423;28;20246;-65
2022/07/09 09:16:06;;;;;;;2.83;1.80;;;;;;;;;;5031479;28;20214;-68
2022/07/09 09:18:32;;;;;;;2.10;1.93;;;;;;;;;;5031478;28;20723;-65
2022/07/09 09:21:05;;;;;;;4.13;1.47;;;;;;;;;;5032559;28;20286;-65
2022/07/09 09:23:41;;;;;;;1.60;1.50;;;;;;;;;;5032645;28;20203;-68
2022/07/09 09:26:11;;;;;;;1.67;1.53;;;;;;;;;;5031273;28;20175;-68
2022/07/09 09:28:56;;;;;;;1.17;1.17;;;;;;;;;;5032636;28;20228;-68
2022/07/09 09:31:26;;;;;;;1.23;1.20;;;;;;;;;;5031488;28;20176;-68
2022/07/09 09:33:54;;;;;;;1.33;1.23;;;;;;;;;;5032763;28;20264;-68
2022/07/09 09:36:31;;;;;;;1.93;1.40;;;;;;;;;;5034774;28;20179;-66
2022/07/09 09:39:09;;;;;;;2.40;1.30;;;;;;;;;;5034879;28;20194;-66
2022/07/09 09:41:35;;;;;;;1.50;1.40;;;;;;;;;;5035937;28;20252;-68
2022/07/09 09:44:05;;;;;;;1.50;1.40;;;;;;;;;;5035958;28;20218;-67
2022/07/09 09:46:33;;;;;;;1.30;1.20;;;;;;;;;;5036125;28;20171;-67
2022/07/09 09:48:59;;;;;;;3.97;1.50;;;;;;;;;;5034553;28;20175;-67
2022/07/09 09:51:26;;;;;;;1.30;1.20;;;;;;;;;;5035825;28;20552;-67
2022/07/09 09:53:53;;;;;;;1.30;1.20;;;;;;;;;;5036004;28;20198;-67
2022/07/09 09:56:19;;;;;;;3.27;1.70;;;;;;;;;;5035673;28;20254;-67
2022/07/09 09:58:45;;;;;;;1.10;1.10;;;;;;;;;;5035688;28;20598;-67
2022/07/09 10:01:12;;;;;;;1.50;1.33;;;;;;;;;;5034296;28;20186;-67
2022/07/09 10:03:39;;;;;;;1.30;1.20;;;;;;;;;;5034756;28;20207;-67
2022/07/09 10:06:06;;;;;;;1.40;1.30;;;;;;;;;;5034492;28;20179;-67
2022/07/09 10:08:32;;;;;;;1.60;1.50;;;;;;;;;;5035583;28;20226;-66
2022/07/09 10:10:58;;;;;;;2.77;1.50;;;;;;;;;;5035734;28;20187;-67
2022/07/09 10:13:24;;;;;;;2.33;1.67;;;;;;;;;;5034093;28;20299;-68
2022/07/09 10:15:51;;;;;;;1.60;1.50;;;;;;;;;;5035368;28;20266;-67
2022/07/09 10:18:20;;;;;;;1.50;1.40;;;;;;;;;;5035846;28;20535;-67
2022/07/09 10:20:46;;;;;;;1.80;1.60;;;;;;;;;;5035355;28;20729;-67
2022/07/09 10:23:22;;;;;;;2.43;1.70;;;;;;;;;;5035136;28;20212;-67
2022/07/09 10:25:52;;;;;;;1.40;1.30;;;;;;;;;;5035472;28;20167;-68
2022/07/09 10:28:19;;;;;;;1.60;1.50;;;;;;;;;;5035490;28;20164;-67
2022/07/09 10:30:46;;;;;;;1.80;1.70;;;;;;;;;;5033856;28;20186;-67
2022/07/09 10:33:12;;;;;;;2.90;2.00;;;;;;;;;;5035243;28;20217;-67
2022/07/09 10:35:40;;;;;;;1.80;1.70;;;;;;;;;;5035150;28;20555;-67
2022/07/09 10:38:06;;;;;;;1.70;1.60;;;;;;;;;;5035147;28;20659;-67
2022/07/09 10:40:59;;;;;;;2.63;1.80;;;;;;;;;;5033564;28;20238;-68
2022/07/09 10:43:39;;;;;;;1.67;1.57;;;;;;;;;;5032188;28;20601;-67
2022/07/09 10:46:14;;;;;;;2.13;1.90;;;;;;;;;;5035025;28;20151;-68
2022/07/09 10:48:40;;;;;;;1.80;1.70;;;;;;;;;;5034966;28;20585;-67
2022/07/09 10:51:06;;;;;;;1.80;1.70;;;;;;;;;;5034914;28;20183;-67
2022/07/09 10:53:32;;;;;;;1.83;1.73;;;;;;;;;;5033568;28;20211;-67
2022/07/09 10:55:59;;;;;;;2.60;1.87;;;;;;;;;;5035125;28;20313;-68
2022/07/09 10:58:25;;;;;;;2.83;2.40;;;;;;;;;;5033508;28;20183;-67
2022/07/09 11:00:57;;;;;;;2.13;1.90;;;;;;;;;;5033297;28;20203;-67
2022/07/09 11:03:27;;;;;;;2.10;2.00;;;;;;;;;;5034807;28;20199;-67
2022/07/09 11:05:53;;;;;;;4.47;2.37;;;;;;;;;;5034582;28;20175;-68
2022/07/09 11:08:19;;;;;;;2.60;2.40;;;;;;;;;;5034711;28;20175;-68
2022/07/09 11:10:45;;;;;;;3.77;2.80;;;;;;;;;;5034469;28;20179;-68
2022/07/09 11:13:11;;;;;;;2.60;2.40;;;;;;;;;;5034351;28;20179;-67
2022/07/09 11:15:38;;;;;;;4.67;2.80;;;;;;;;;;5033077;28;20191;-67
2022/07/09 11:18:08;;;;;;;2.70;2.50;;;;;;;;;;5034532;28;20588;-67
2022/07/09 11:20:38;;;;;;;3.33;3.03;;;;;;;;;;5034200;28;20616;-67
2022/07/09 11:23:04;;;;;;;3.30;2.97;;;;;;;;;;5033049;28;20635;-68
2022/07/09 11:25:30;;;;;;;3.53;2.93;;;;;;;;;;5034939;28;20175;-68
2022/07/09 11:27:59;;;;;;;4.17;2.97;;;;;;;;;;5034601;28;20179;-68
2022/07/09 11:30:27;;;;;;;3.43;3.07;;;;;;;;;;5034267;28;20175;-68
2022/07/09 11:32:53;;;;;;;3.33;2.90;;;;;;;;;;5033270;28;20183;-68
2022/07/09 11:35:35;;;;;;;4.77;3.47;;;;;;;;;;5034821;28;20667;-68
2022/07/09 11:38:02;;;;;;;3.87;3.20;;;;;;;;;;5035055;28;20183;-67
2022/07/09 11:40:28;;;;;;;4.37;3.80;;;;;;;;;;5033961;28;20201;-67
2022/07/09 11:42:54;;;;;;;9.27;4.10;;;;;;;;;;5032474;28;20701;-67
2022/07/09 11:45:22;;;;;;;6.83;3.67;;;;;;;;;;5032412;28;20298;-67
2022/07/09 11:47:48;;;;;;;5.97;4.10;;;;;;;;;;5034344;28;20617;-67
2022/07/09 11:50:15;;;;;;;5.20;4.80;;;;;;;;;;5033979;28;20217;-67
2022/07/09 11:52:45;;;;;;;5.57;4.23;;;;;;;;;;5032478;28;20571;-67
2022/07/09 11:55:12;;;;;;;5.37;4.70;;;;;;;;;;5033645;28;20270;-67
2022/07/09 11:57:38;;;;;;;9.10;5.40;;;;;;;;;;5033426;28;20600;-67
2022/07/09 12:00:05;;;;;;;5.10;4.60;;;;;;;;;;5033670;28;20269;-67
2022/07/09 12:02:33;;;;;;;5.67;4.13;;;;;;;;;;5033538;28;20349;-67
2022/07/09 12:04:59;;;;;;;4.70;4.30;;;;;;;;;;5033866;28;20685;-66
2022/07/09 12:07:25;;;;;;;4.57;4.17;;;;;;;;;;5033650;28;20215;-66
2022/07/09 12:10:01;;;;;;;5.37;4.40;;;;;;;;;;5033487;28;20191;-67
2022/07/09 12:12:27;;;;;;;4.63;4.17;;;;;;;;;;5033592;28;20182;-67
2022/07/09 12:14:57;;;;;;;5.83;4.40;;;;;;;;;;5033496;28;20195;-66
2022/07/09 12:17:24;;;;;;;9.30;4.33;;;;;;;;;;5033466;28;20183;-67
2022/07/09 12:19:51;;;;;;;4.57;4.13;;;;;;;;;;5032090;28;20584;-67
2022/07/09 12:22:17;;;;;;;4.63;4.23;;;;;;;;;;5032002;28;20183;-67
2022/07/09 12:24:43;;;;;;;4.87;4.13;;;;;;;;;;5033345;28;20214;-68
2022/07/09 12:27:09;;;;;;;4.87;4.23;;;;;;;;;;5033307;28;20174;-66
2022/07/09 12:29:36;;;;;;;5.33;3.87;;;;;;;;;;5031868;28;20674;-66
2022/07/09 12:32:02;;;;;;;5.60;4.83;;;;;;;;;;5033726;28;20554;-68
2022/07/09 12:34:28;;;;;;;6.77;4.60;;;;;;;;;;5034064;28;20667;-67
2022/07/09 12:36:54;;;;;;;4.30;3.90;;;;;;;;;;5033193;28;20183;-68
2022/07/09 12:39:20;;;;;;;5.87;4.57;;;;;;;;;;5033109;28;20655;-67
2022/07/09 12:41:46;;;;;;;5.17;3.93;;;;;;;;;;5033017;28;20259;-66
2022/07/09 12:44:12;;;;;;;7.67;4.87;;;;;;;;;;5032801;28;20709;-65
2022/07/09 12:46:38;;;;;;;6.23;4.70;;;;;;;;;;5031782;28;20284;-65
2022/07/09 12:49:04;;;;;;;5.03;4.53;;;;;;;;;;5033163;28;20589;-65
2022/07/09 12:51:30;;;;;;;6.03;4.63;;;;;;;;;;5031695;28;20179;-68
2022/07/09 12:53:56;;;;;;;6.10;5.40;;;;;;;;;;5033097;28;20686;-66
2022/07/09 12:56:22;;;;;;;6.83;6.23;;;;;;;;;;5032992;28;20266;-65
2022/07/09 12:58:48;;;;;;;7.13;6.07;;;;;;;;;;5032923;28;20186;-66
2022/07/09 13:01:14;;;;;;;5.83;5.33;;;;;;;;;;5032834;28;20179;-65
2022/07/09 13:03:41;;;;;;;5.47;5.00;;;;;;;;;;5031541;28;20199;-66
2022/07/09 13:08:52;;;;;;;5.60;5.03;;;;;;;;;;5034330;28;20256;-65
2022/07/09 13:11:18;;;;;;;5.57;5.07;;;;;;;;;;5036642;28;20218;-66
2022/07/09 13:13:44;;;;;;;5.70;5.00;;;;;;;;;;5035268;28;20206;-66
2022/07/09 13:16:10;;;;;;;5.63;5.13;;;;;;;;;;5036773;28;20186;-66
2022/07/09 13:18:36;;;;;;;6.20;5.40;;;;;;;;;;5036367;28;20185;-66
2022/07/09 13:21:02;;;;;;;7.87;4.80;;;;;;;;;;5036535;28;20675;-66
2022/07/09 13:23:27;;;;;;;5.03;4.17;;;;;;;;;;5036556;28;20698;-66
2022/07/09 13:25:53;;;;;;;4.33;3.83;;;;;;;;;;5036594;28;20175;-66
2022/07/09 13:28:19;;;;;;;5.07;3.90;;;;;;;;;;5036446;28;20210;-66
2022/07/09 13:30:45;;;;;;;4.47;3.70;;;;;;;;;;5034957;28;20647;-66
2022/07/09 13:33:11;;;;;;;3.97;3.50;;;;;;;;;;5034803;28;20179;-67
2022/07/09 13:35:37;;;;;;;3.97;3.07;;;;;;;;;;5036214;28;20254;-66
2022/07/09 13:38:03;;;;;;;3.97;3.40;;;;;;;;;;5035046;28;20214;-66
2022/07/09 13:40:29;;;;;;;4.37;3.47;;;;;;;;;;5034671;28;20202;-67
2022/07/09 13:42:55;;;;;;;5.67;3.10;;;;;;;;;;5036076;28;20565;-66
2022/07/09 13:45:21;;;;;;;3.93;2.60;;;;;;;;;;5035786;28;20203;-67
2022/07/09 13:47:47;;;;;;;2.47;2.07;;;;;;;;;;5035807;28;20553;-66
2022/07/09 13:50:13;;;;;;;2.27;1.80;;;;;;;;;;5035872;28;20186;-67
2022/07/09 13:52:39;;;;;;;2.13;1.90;;;;;;;;;;5035734;28;20186;-66
2022/07/09 13:55:05;;;;;;;2.57;1.87;;;;;;;;;;5035916;28;20207;-66
2022/07/09 13:57:31;;;;;;;3.17;2.00;;;;;;;;;;5036319;28;20202;-67
2022/07/09 13:59:57;;;;;;;3.33;2.10;;;;;;;;;;5036607;28;20199;-66
2022/07/09 14:02:23;;;;;;;2.53;1.93;;;;;;;;;;5038575;28;20178;-66
2022/07/09 14:04:49;;;;;;;2.27;2.03;;;;;;;;;;5036336;28;20253;-66
2022/07/09 14:07:16;;;;;;;2.33;2.13;;;;;;;;;;5037012;28;20233;-66
2022/07/09 14:09:42;;;;;;;2.30;2.00;;;;;;;;;;5036372;28;20202;-67
2022/07/09 14:12:08;;;;;;;2.83;2.00;;;;;;;;;;5034213;28;20639;-66
2022/07/09 14:14:35;;;;;;;1.90;1.80;;;;;;;;;;5034343;28;20203;-66
2022/07/09 14:17:01;;;;;;;1.77;1.67;;;;;;;;;;5034769;28;20187;-66
2022/07/09 14:19:27;;;;;;;2.13;1.90;;;;;;;;;;5035558;28;20206;-66
2022/07/09 14:21:53;;;;;;;2.00;1.73;;;;;;;;;;5035078;28;20206;-67
2022/07/09 14:24:19;;;;;;;2.17;1.97;;;;;;;;;;5034614;28;20206;-66
2022/07/09 14:26:47;;;;;;;5.50;1.67;;;;;;;;;;5034642;28;20560;-66
2022/07/09 14:29:14;;;;;;;1.70;1.60;;;;;;;;;;5035815;28;20554;-67
2022/07/09 14:31:40;;;;;;;1.83;1.70;;;;;;;;;;5035051;28;20182;-67
2022/07/09 14:34:06;;;;;;;1.70;1.60;;;;;;;;;;5035359;28;20202;-66